Aviation Digital Data Service (ADDS)

Output produced by METARs form (1230 UTC 17 September 2019)
found at http://www.aviationweather.gov/metar/data/
 
METAR text: EBBR 171220Z 34011KT CAVOK 17/08 Q1023 NOSIG
Conditions at: EBBR (BRUSSELS NATIONA, BE) observed 1220 UTC 17 September 2019
Temperature: 17.0°C (63°F)
Dewpoint: 8.0°C (46°F) [RH = 55%]
Pressure (altimeter): 30.21 inches Hg (1023.0 mb)
Winds: from the NNW (340 degrees) at 13 MPH (11 knots; 5.7 m/s)
Visibility: 6 or more miles (10+ km)
Ceiling: ceiling and visibility are OK
Clouds: unknown
Weather: no significant weather observed at this time

Forecast for: EBBR (BRUSSELS NATIONA, BE)
Text: TAF EBBR 171110Z 1712/1818 34009KT 9999 SCT030
Forecast period: 1200 UTC 17 September 2019 to 1800 UTC 18 September 2019
Forecast type: FROM: standard forecast or significant change
Winds: from the NNW (340 degrees) at 10 MPH (9 knots; 4.6 m/s)
Visibility: 6 or more miles 10+ km)
Ceiling: at least 12,000 feet AGL
Clouds: scattered clouds at 3000 feet AGL
Weather: no significant weather forecast for this period